sensor_id;sensor_type;location;lat;lon;timestamp;P1;durP1;ratioP1;P2;durP2;ratioP2
26780;SDS011;14366;49.184;8.054;2023-04-25T00:02:25;4.44;;;3.52;;
26780;SDS011;14366;49.184;8.054;2023-04-25T00:07:57;4.20;;;3.27;;
26780;SDS011;14366;49.184;8.054;2023-04-25T00:13:29;3.45;;;3.10;;
26780;SDS011;14366;49.184;8.054;2023-04-25T00:23:53;4.00;;;3.30;;
26780;SDS011;14366;49.184;8.054;2023-04-25T00:29:25;4.40;;;3.50;;
26780;SDS011;14366;49.184;8.054;2023-04-25T00:34:42;3.80;;;3.35;;
26780;SDS011;14366;49.184;8.054;2023-04-25T00:45:06;3.40;;;2.90;;
26780;SDS011;14366;49.184;8.054;2023-04-25T00:50:38;3.40;;;3.10;;
26780;SDS011;14366;49.184;8.054;2023-04-25T00:56:13;3.83;;;3.10;;
26780;SDS011;14366;49.184;8.054;2023-04-25T01:01:47;3.07;;;2.70;;
26780;SDS011;14366;49.184;8.054;2023-04-25T01:07:18;3.27;;;2.70;;
26780;SDS011;14366;49.184;8.054;2023-04-25T01:12:53;3.53;;;2.70;;
26780;SDS011;14366;49.184;8.054;2023-04-25T01:18:27;3.03;;;2.77;;
26780;SDS011;14366;49.184;8.054;2023-04-25T01:24:00;3.63;;;3.30;;
26780;SDS011;14366;49.184;8.054;2023-04-25T01:29:35;3.43;;;3.00;;
26780;SDS011;14366;49.184;8.054;2023-04-25T01:35:08;3.67;;;3.13;;
26780;SDS011;14366;49.184;8.054;2023-04-25T01:40:38;4.47;;;3.10;;
26780;SDS011;14366;49.184;8.054;2023-04-25T01:46:14;3.43;;;3.13;;
26780;SDS011;14366;49.184;8.054;2023-04-25T01:51:46;3.43;;;3.13;;
26780;SDS011;14366;49.184;8.054;2023-04-25T01:57:08;4.65;;;3.10;;
26780;SDS011;14366;49.184;8.054;2023-04-25T02:08:44;3.70;;;3.40;;
26780;SDS011;14366;49.184;8.054;2023-04-25T02:14:17;4.30;;;3.20;;
26780;SDS011;14366;49.184;8.054;2023-04-25T02:19:47;4.30;;;3.20;;
26780;SDS011;14366;49.184;8.054;2023-04-25T02:25:22;3.77;;;3.37;;
26780;SDS011;14366;49.184;8.054;2023-04-25T02:35:59;3.80;;;3.30;;
26780;SDS011;14366;49.184;8.054;2023-04-25T02:41:49;3.50;;;3.20;;
26780;SDS011;14366;49.184;8.054;2023-04-25T02:52:30;4.10;;;3.20;;
26780;SDS011;14366;49.184;8.054;2023-04-25T02:58:02;3.20;;;2.90;;
26780;SDS011;14366;49.184;8.054;2023-04-25T03:03:37;7.70;;;3.30;;
26780;SDS011;14366;49.184;8.054;2023-04-25T03:09:10;6.33;;;3.40;;
26780;SDS011;14366;49.184;8.054;2023-04-25T03:14:46;4.27;;;3.60;;
26780;SDS011;14366;49.184;8.054;2023-04-25T03:20:06;4.57;;;4.10;;
26780;SDS011;14366;49.184;8.054;2023-04-25T03:25:40;4.90;;;3.87;;
26780;SDS011;14366;49.184;8.054;2023-04-25T03:31:12;4.27;;;3.87;;
26780;SDS011;14366;49.184;8.054;2023-04-25T03:41:38;5.90;;;4.50;;
26780;SDS011;14366;49.184;8.054;2023-04-25T03:47:10;6.07;;;4.63;;
26780;SDS011;14366;49.184;8.054;2023-04-25T03:52:42;5.10;;;4.60;;
26780;SDS011;14366;49.184;8.054;2023-04-25T03:58:15;5.73;;;4.40;;
26780;SDS011;14366;49.184;8.054;2023-04-25T04:03:50;5.03;;;4.53;;
26780;SDS011;14366;49.184;8.054;2023-04-25T04:09:10;5.23;;;4.73;;
26780;SDS011;14366;49.184;8.054;2023-04-25T04:14:43;5.70;;;4.53;;
26780;SDS011;14366;49.184;8.054;2023-04-25T04:20:18;5.13;;;4.60;;
26780;SDS011;14366;49.184;8.054;2023-04-25T04:25:38;5.20;;;4.47;;
26780;SDS011;14366;49.184;8.054;2023-04-25T04:31:12;5.27;;;4.60;;
26780;SDS011;14366;49.184;8.054;2023-04-25T04:36:47;5.63;;;4.57;;
26780;SDS011;14366;49.184;8.054;2023-04-25T04:42:19;5.20;;;4.70;;
26780;SDS011;14366;49.184;8.054;2023-04-25T04:47:41;6.10;;;5.40;;
26780;SDS011;14366;49.184;8.054;2023-04-25T04:53:13;6.40;;;5.80;;
26780;SDS011;14366;49.184;8.054;2023-04-25T05:03:54;7.58;;;6.00;;
26780;SDS011;14366;49.184;8.054;2023-04-25T05:14:33;6.77;;;6.10;;
26780;SDS011;14366;49.184;8.054;2023-04-25T05:20:07;7.90;;;6.67;;
26780;SDS011;14366;49.184;8.054;2023-04-25T05:25:42;6.83;;;5.90;;
26780;SDS011;14366;49.184;8.054;2023-04-25T05:31:14;8.07;;;7.17;;
26780;SDS011;14366;49.184;8.054;2023-04-25T05:36:32;6.70;;;6.00;;
26780;SDS011;14366;49.184;8.054;2023-04-25T05:42:05;6.93;;;6.07;;
26780;SDS011;14366;49.184;8.054;2023-04-25T05:47:22;6.80;;;5.50;;
26780;SDS011;14366;49.184;8.054;2023-04-25T05:52:41;6.40;;;5.80;;
26780;SDS011;14366;49.184;8.054;2023-04-25T06:03:16;6.43;;;5.73;;
26780;SDS011;14366;49.184;8.054;2023-04-25T06:08:50;6.83;;;6.00;;
26780;SDS011;14366;49.184;8.054;2023-04-25T06:14:22;6.60;;;5.95;;
26780;SDS011;14366;49.184;8.054;2023-04-25T06:19:38;7.57;;;6.70;;
26780;SDS011;14366;49.184;8.054;2023-04-25T06:25:15;9.40;;;7.10;;
26780;SDS011;14366;49.184;8.054;2023-04-25T06:30:44;7.60;;;6.77;;
26780;SDS011;14366;49.184;8.054;2023-04-25T06:36:02;8.00;;;7.20;;
26780;SDS011;14366;49.184;8.054;2023-04-25T06:41:22;7.53;;;6.83;;
26780;SDS011;14366;49.184;8.054;2023-04-25T06:46:51;16.27;;;12.93;;
26780;SDS011;14366;49.184;8.054;2023-04-25T06:52:23;13.17;;;10.93;;
26780;SDS011;14366;49.184;8.054;2023-04-25T06:57:42;12.73;;;11.40;;
26780;SDS011;14366;49.184;8.054;2023-04-25T07:03:13;9.60;;;8.30;;
26780;SDS011;14366;49.184;8.054;2023-04-25T07:08:45;9.35;;;8.35;;
26780;SDS011;14366;49.184;8.054;2023-04-25T07:19:08;9.25;;;8.02;;
26780;SDS011;14366;49.184;8.054;2023-04-25T07:29:43;9.57;;;7.37;;
26780;SDS011;14366;49.184;8.054;2023-04-25T07:35:17;8.17;;;7.27;;
26780;SDS011;14366;49.184;8.054;2023-04-25T07:40:49;8.37;;;7.50;;
26780;SDS011;14366;49.184;8.054;2023-04-25T07:46:20;7.80;;;7.00;;
26780;SDS011;14366;49.184;8.054;2023-04-25T07:51:42;8.00;;;7.20;;
26780;SDS011;14366;49.184;8.054;2023-04-25T07:57:16;8.30;;;7.40;;
26780;SDS011;14366;49.184;8.054;2023-04-25T08:02:37;8.00;;;7.20;;
26780;SDS011;14366;49.184;8.054;2023-04-25T08:08:11;8.77;;;6.80;;
26780;SDS011;14366;49.184;8.054;2023-04-25T08:13:46;7.60;;;6.80;;
26780;SDS011;14366;49.184;8.054;2023-04-25T08:19:01;9.00;;;8.20;;
26780;SDS011;14366;49.184;8.054;2023-04-25T08:24:34;8.53;;;7.73;;
26780;SDS011;14366;49.184;8.054;2023-04-25T08:30:06;7.50;;;6.80;;
26780;SDS011;14366;49.184;8.054;2023-04-25T08:35:33;6.77;;;6.13;;
26780;SDS011;14366;49.184;8.054;2023-04-25T08:41:06;6.87;;;5.80;;
26780;SDS011;14366;49.184;8.054;2023-04-25T08:46:36;8.10;;;7.00;;
26780;SDS011;14366;49.184;8.054;2023-04-25T08:52:08;10.20;;;7.47;;
26780;SDS011;14366;49.184;8.054;2023-04-25T08:57:41;12.07;;;7.03;;
26780;SDS011;14366;49.184;8.054;2023-04-25T09:03:11;9.97;;;6.40;;
26780;SDS011;14366;49.184;8.054;2023-04-25T09:08:43;9.93;;;6.70;;
26780;SDS011;14366;49.184;8.054;2023-04-25T09:14:16;9.77;;;6.90;;
26780;SDS011;14366;49.184;8.054;2023-04-25T09:19:51;11.97;;;7.10;;
26780;SDS011;14366;49.184;8.054;2023-04-25T09:25:12;8.20;;;6.43;;
26780;SDS011;14366;49.184;8.054;2023-04-25T09:30:48;11.70;;;6.93;;
26780;SDS011;14366;49.184;8.054;2023-04-25T09:36:23;11.60;;;6.37;;
26780;SDS011;14366;49.184;8.054;2023-04-25T09:41:58;12.13;;;6.90;;
26780;SDS011;14366;49.184;8.054;2023-04-25T09:47:36;12.23;;;7.87;;
26780;SDS011;14366;49.184;8.054;2023-04-25T09:53:09;11.23;;;6.30;;
26780;SDS011;14366;49.184;8.054;2023-04-25T09:58:39;16.45;;;9.40;;
26780;SDS011;14366;49.184;8.054;2023-04-25T10:04:11;12.57;;;7.30;;
26780;SDS011;14366;49.184;8.054;2023-04-25T10:14:47;8.43;;;5.97;;
26780;SDS011;14366;49.184;8.054;2023-04-25T10:25:24;5.47;;;3.50;;
26780;SDS011;14366;49.184;8.054;2023-04-25T10:36:08;4.33;;;3.30;;
26780;SDS011;14366;49.184;8.054;2023-04-25T10:41:47;4.10;;;3.43;;
26780;SDS011;14366;49.184;8.054;2023-04-25T10:52:35;4.20;;;3.03;;
26780;SDS011;14366;49.184;8.054;2023-04-25T10:58:08;3.77;;;2.50;;
26780;SDS011;14366;49.184;8.054;2023-04-25T11:08:47;4.70;;;3.73;;
26780;SDS011;14366;49.184;8.054;2023-04-25T11:14:30;4.32;;;3.50;;
26780;SDS011;14366;49.184;8.054;2023-04-25T11:25:08;4.05;;;3.15;;
26780;SDS011;14366;49.184;8.054;2023-04-25T11:30:48;4.80;;;3.40;;
26780;SDS011;14366;49.184;8.054;2023-04-25T11:36:17;4.67;;;3.77;;
26780;SDS011;14366;49.184;8.054;2023-04-25T11:41:34;5.50;;;3.80;;
26780;SDS011;14366;49.184;8.054;2023-04-25T11:47:07;6.13;;;4.13;;
26780;SDS011;14366;49.184;8.054;2023-04-25T11:52:40;4.30;;;3.90;;
26780;SDS011;14366;49.184;8.054;2023-04-25T12:03:18;5.47;;;4.30;;
26780;SDS011;14366;49.184;8.054;2023-04-25T12:13:54;7.57;;;4.07;;
26780;SDS011;14366;49.184;8.054;2023-04-25T12:24:18;7.20;;;4.43;;
26780;SDS011;14366;49.184;8.054;2023-04-25T12:30:02;5.47;;;4.67;;
26780;SDS011;14366;49.184;8.054;2023-04-25T12:35:34;4.83;;;4.33;;
26780;SDS011;14366;49.184;8.054;2023-04-25T12:40:53;5.23;;;3.87;;
26780;SDS011;14366;49.184;8.054;2023-04-25T12:46:25;5.65;;;3.40;;
26780;SDS011;14366;49.184;8.054;2023-04-25T12:51:57;5.55;;;4.00;;
26780;SDS011;14366;49.184;8.054;2023-04-25T13:02:35;8.30;;;4.10;;
26780;SDS011;14366;49.184;8.054;2023-04-25T13:08:09;4.97;;;3.40;;
26780;SDS011;14366;49.184;8.054;2023-04-25T13:13:41;5.13;;;3.50;;
26780;SDS011;14366;49.184;8.054;2023-04-25T13:19:15;5.57;;;3.37;;
26780;SDS011;14366;49.184;8.054;2023-04-25T13:24:46;5.87;;;4.30;;
26780;SDS011;14366;49.184;8.054;2023-04-25T13:30:18;4.67;;;3.67;;
26780;SDS011;14366;49.184;8.054;2023-04-25T13:35:52;7.63;;;4.70;;
26780;SDS011;14366;49.184;8.054;2023-04-25T13:41:23;4.57;;;3.70;;
26780;SDS011;14366;49.184;8.054;2023-04-25T13:46:40;6.13;;;4.20;;
26780;SDS011;14366;49.184;8.054;2023-04-25T13:52:02;8.87;;;6.07;;
26780;SDS011;14366;49.184;8.054;2023-04-25T13:57:34;10.30;;;7.70;;
26780;SDS011;14366;49.184;8.054;2023-04-25T14:03:08;5.75;;;5.05;;
26780;SDS011;14366;49.184;8.054;2023-04-25T14:08:28;6.20;;;4.27;;
26780;SDS011;14366;49.184;8.054;2023-04-25T14:14:02;6.23;;;5.00;;
26780;SDS011;14366;49.184;8.054;2023-04-25T14:19:34;7.33;;;4.57;;
26780;SDS011;14366;49.184;8.054;2023-04-25T14:25:08;5.90;;;4.60;;
26780;SDS011;14366;49.184;8.054;2023-04-25T14:30:43;4.60;;;4.10;;
26780;SDS011;14366;49.184;8.054;2023-04-25T14:36:00;9.80;;;7.27;;
26780;SDS011;14366;49.184;8.054;2023-04-25T14:41:19;6.05;;;4.65;;
26780;SDS011;14366;49.184;8.054;2023-04-25T14:46:54;5.50;;;4.78;;
26780;SDS011;14366;49.184;8.054;2023-04-25T14:52:30;4.82;;;4.22;;
26780;SDS011;14366;49.184;8.054;2023-04-25T14:58:03;5.40;;;4.90;;
26780;SDS011;14366;49.184;8.054;2023-04-25T15:03:36;8.23;;;5.30;;
26780;SDS011;14366;49.184;8.054;2023-04-25T15:08:53;5.87;;;4.83;;
26780;SDS011;14366;49.184;8.054;2023-04-25T15:14:11;7.37;;;5.00;;
26780;SDS011;14366;49.184;8.054;2023-04-25T15:19:46;6.13;;;4.53;;
26780;SDS011;14366;49.184;8.054;2023-04-25T15:25:06;4.80;;;4.30;;
26780;SDS011;14366;49.184;8.054;2023-04-25T15:30:41;6.93;;;3.90;;
26780;SDS011;14366;49.184;8.054;2023-04-25T15:36:16;5.27;;;3.70;;
26780;SDS011;14366;49.184;8.054;2023-04-25T15:41:33;4.53;;;3.93;;
26780;SDS011;14366;49.184;8.054;2023-04-25T15:47:06;4.65;;;3.50;;
26780;SDS011;14366;49.184;8.054;2023-04-25T15:52:36;5.23;;;4.33;;
26780;SDS011;14366;49.184;8.054;2023-04-25T15:58:08;4.43;;;3.33;;
26780;SDS011;14366;49.184;8.054;2023-04-25T16:03:31;4.55;;;3.50;;
26780;SDS011;14366;49.184;8.054;2023-04-25T16:09:05;5.73;;;3.43;;
26780;SDS011;14366;49.184;8.054;2023-04-25T16:14:22;7.43;;;3.07;;
26780;SDS011;14366;49.184;8.054;2023-04-25T16:19:55;5.43;;;3.17;;
26780;SDS011;14366;49.184;8.054;2023-04-25T16:25:26;5.40;;;3.60;;
26780;SDS011;14366;49.184;8.054;2023-04-25T16:30:46;6.10;;;3.20;;
26780;SDS011;14366;49.184;8.054;2023-04-25T16:36:08;5.60;;;4.00;;
26780;SDS011;14366;49.184;8.054;2023-04-25T16:41:43;6.13;;;4.17;;
26780;SDS011;14366;49.184;8.054;2023-04-25T16:47:00;4.10;;;3.50;;
26780;SDS011;14366;49.184;8.054;2023-04-25T16:52:33;8.47;;;5.20;;
26780;SDS011;14366;49.184;8.054;2023-04-25T17:03:24;4.60;;;3.50;;
26780;SDS011;14366;49.184;8.054;2023-04-25T17:08:57;6.70;;;5.57;;
26780;SDS011;14366;49.184;8.054;2023-04-25T17:14:32;24.38;;;13.56;;
26780;SDS011;14366;49.184;8.054;2023-04-25T17:19:49;51.67;;;29.10;;
26780;SDS011;14366;49.184;8.054;2023-04-25T17:25:10;20.40;;;12.37;;
26780;SDS011;14366;49.184;8.054;2023-04-25T17:30:45;19.03;;;12.60;;
26780;SDS011;14366;49.184;8.054;2023-04-25T17:36:05;23.95;;;17.50;;
26780;SDS011;14366;49.184;8.054;2023-04-25T17:41:24;17.05;;;11.70;;
26780;SDS011;14366;49.184;8.054;2023-04-25T17:46:56;9.60;;;8.13;;
26780;SDS011;14366;49.184;8.054;2023-04-25T17:52:28;9.10;;;6.27;;
26780;SDS011;14366;49.184;8.054;2023-04-25T17:58:01;7.17;;;5.80;;
26780;SDS011;14366;49.184;8.054;2023-04-25T18:03:33;6.63;;;5.70;;
26780;SDS011;14366;49.184;8.054;2023-04-25T18:08:50;6.00;;;5.40;;
26780;SDS011;14366;49.184;8.054;2023-04-25T18:14:09;7.40;;;4.40;;
26780;SDS011;14366;49.184;8.054;2023-04-25T18:19:42;5.30;;;4.40;;
26780;SDS011;14366;49.184;8.054;2023-04-25T18:24:59;4.80;;;3.85;;
26780;SDS011;14366;49.184;8.054;2023-04-25T18:30:17;5.00;;;4.50;;
26780;SDS011;14366;49.184;8.054;2023-04-25T18:35:49;5.90;;;4.80;;
26780;SDS011;14366;49.184;8.054;2023-04-25T18:41:09;6.30;;;5.37;;
26780;SDS011;14366;49.184;8.054;2023-04-25T18:46:45;5.30;;;4.80;;
26780;SDS011;14366;49.184;8.054;2023-04-25T18:52:17;4.80;;;4.30;;
26780;SDS011;14366;49.184;8.054;2023-04-25T18:57:49;8.07;;;6.00;;
26780;SDS011;14366;49.184;8.054;2023-04-25T19:03:27;5.85;;;4.70;;
26780;SDS011;14366;49.184;8.054;2023-04-25T19:08:58;9.63;;;5.10;;
26780;SDS011;14366;49.184;8.054;2023-04-25T19:14:19;6.20;;;5.57;;
26780;SDS011;14366;49.184;8.054;2023-04-25T19:19:56;6.60;;;5.43;;
26780;SDS011;14366;49.184;8.054;2023-04-25T19:25:30;6.60;;;5.10;;
26780;SDS011;14366;49.184;8.054;2023-04-25T19:31:05;7.00;;;5.47;;
26780;SDS011;14366;49.184;8.054;2023-04-25T19:36:39;6.23;;;4.97;;
26780;SDS011;14366;49.184;8.054;2023-04-25T19:42:09;7.67;;;5.07;;
26780;SDS011;14366;49.184;8.054;2023-04-25T19:47:41;5.30;;;4.53;;
26780;SDS011;14366;49.184;8.054;2023-04-25T19:53:14;7.83;;;6.60;;
26780;SDS011;14366;49.184;8.054;2023-04-25T19:58:45;7.00;;;5.47;;
26780;SDS011;14366;49.184;8.054;2023-04-25T20:04:17;5.90;;;4.57;;
26780;SDS011;14366;49.184;8.054;2023-04-25T20:09:51;9.30;;;5.03;;
26780;SDS011;14366;49.184;8.054;2023-04-25T20:20:28;8.66;;;5.44;;
26780;SDS011;14366;49.184;8.054;2023-04-25T20:26:02;8.00;;;6.00;;
26780;SDS011;14366;49.184;8.054;2023-04-25T20:31:37;7.47;;;6.17;;
26780;SDS011;14366;49.184;8.054;2023-04-25T20:37:11;6.93;;;5.50;;
26780;SDS011;14366;49.184;8.054;2023-04-25T20:42:45;8.13;;;5.70;;
26780;SDS011;14366;49.184;8.054;2023-04-25T20:48:15;8.60;;;5.43;;
26780;SDS011;14366;49.184;8.054;2023-04-25T20:53:47;8.07;;;5.37;;
26780;SDS011;14366;49.184;8.054;2023-04-25T20:59:06;6.50;;;4.90;;
26780;SDS011;14366;49.184;8.054;2023-04-25T21:04:37;5.20;;;4.60;;
26780;SDS011;14366;49.184;8.054;2023-04-25T21:10:09;6.73;;;4.57;;
26780;SDS011;14366;49.184;8.054;2023-04-25T21:21:02;7.40;;;4.57;;
26780;SDS011;14366;49.184;8.054;2023-04-25T21:31:38;8.83;;;4.43;;
26780;SDS011;14366;49.184;8.054;2023-04-25T21:37:11;6.07;;;4.20;;
26780;SDS011;14366;49.184;8.054;2023-04-25T21:42:43;4.57;;;4.00;;
26780;SDS011;14366;49.184;8.054;2023-04-25T21:48:18;6.50;;;4.10;;
26780;SDS011;14366;49.184;8.054;2023-04-25T21:53:54;6.37;;;4.10;;
26780;SDS011;14366;49.184;8.054;2023-04-25T21:59:29;4.97;;;4.00;;
26780;SDS011;14366;49.184;8.054;2023-04-25T22:04:49;6.40;;;3.40;;
26780;SDS011;14366;49.184;8.054;2023-04-25T22:10:25;4.03;;;3.43;;
26780;SDS011;14366;49.184;8.054;2023-04-25T22:16:00;4.97;;;3.40;;
26780;SDS011;14366;49.184;8.054;2023-04-25T22:21:35;7.13;;;3.60;;
26780;SDS011;14366;49.184;8.054;2023-04-25T22:26:54;7.43;;;3.80;;
26780;SDS011;14366;49.184;8.054;2023-04-25T22:32:26;6.87;;;3.70;;
26780;SDS011;14366;49.184;8.054;2023-04-25T22:38:02;8.27;;;3.80;;
26780;SDS011;14366;49.184;8.054;2023-04-25T22:43:38;7.47;;;4.10;;
26780;SDS011;14366;49.184;8.054;2023-04-25T22:49:10;11.37;;;3.93;;
26780;SDS011;14366;49.184;8.054;2023-04-25T22:54:42;6.73;;;3.90;;
26780;SDS011;14366;49.184;8.054;2023-04-25T23:00:00;6.55;;;3.70;;
26780;SDS011;14366;49.184;8.054;2023-04-25T23:05:32;5.47;;;3.23;;
26780;SDS011;14366;49.184;8.054;2023-04-25T23:10:52;6.67;;;3.30;;
26780;SDS011;14366;49.184;8.054;2023-04-25T23:16:25;5.37;;;2.60;;
26780;SDS011;14366;49.184;8.054;2023-04-25T23:22:00;6.20;;;2.95;;
26780;SDS011;14366;49.184;8.054;2023-04-25T23:27:35;5.90;;;3.17;;
26780;SDS011;14366;49.184;8.054;2023-04-25T23:33:08;6.10;;;3.00;;
26780;SDS011;14366;49.184;8.054;2023-04-25T23:38:40;4.03;;;3.07;;
26780;SDS011;14366;49.184;8.054;2023-04-25T23:44:00;5.80;;;2.90;;
26780;SDS011;14366;49.184;8.054;2023-04-25T23:49:37;3.87;;;2.80;;
26780;SDS011;14366;49.184;8.054;2023-04-25T23:55:06;7.70;;;2.80;;
